createdAt,value
2018-10-04T00:00:34.181Z,6.60
2018-10-04T00:03:02.525Z,6.50
2018-10-04T00:05:30.778Z,6.50
2018-10-04T00:08:15.619Z,6.50
2018-10-04T00:10:43.823Z,6.50
2018-10-04T00:13:12.059Z,6.50
2018-10-04T00:15:40.369Z,6.50
2018-10-04T00:18:08.606Z,6.40
2018-10-04T00:20:36.832Z,6.40
2018-10-04T00:23:05.079Z,6.40
2018-10-04T00:25:33.303Z,6.40
2018-10-04T00:28:01.524Z,6.40
2018-10-04T00:30:29.750Z,6.30
2018-10-04T00:33:02.166Z,6.30
2018-10-04T00:35:30.361Z,6.30
2018-10-04T00:37:58.598Z,6.20
2018-10-04T00:40:26.853Z,6.20
2018-10-04T00:42:55.053Z,6.20
2018-10-04T00:45:23.678Z,6.20
2018-10-04T00:47:52.054Z,6.20
2018-10-04T00:50:20.257Z,6.20
2018-10-04T00:52:48.454Z,6.20
2018-10-04T00:55:16.722Z,6.20
2018-10-04T00:57:44.928Z,6.20
2018-10-04T01:00:13.152Z,6.20
2018-10-04T01:02:43.511Z,6.20
2018-10-04T01:05:11.865Z,6.20
2018-10-04T01:07:41.418Z,6.10
2018-10-04T01:10:10.625Z,6.10
2018-10-04T01:12:38.806Z,6.10
2018-10-04T01:15:07.144Z,6.10
2018-10-04T01:17:35.369Z,6.10
2018-10-04T01:20:03.885Z,6.10
2018-10-04T01:22:32.089Z,6.00
2018-10-04T01:25:00.304Z,6.00
2018-10-04T01:27:28.524Z,6.00
2018-10-04T01:29:56.718Z,6.00
2018-10-04T01:32:24.950Z,6.00
2018-10-04T01:34:53.165Z,6.00
2018-10-04T01:37:21.447Z,6.00
2018-10-04T01:39:49.659Z,5.90
2018-10-04T01:42:17.958Z,5.90
2018-10-04T01:44:46.220Z,5.90
2018-10-04T01:47:14.451Z,5.90
2018-10-04T01:49:43.061Z,5.90
2018-10-04T01:52:11.281Z,5.90
2018-10-04T01:54:40.507Z,5.80
2018-10-04T01:57:08.886Z,5.80
2018-10-04T01:59:37.131Z,5.80
2018-10-04T02:02:05.431Z,5.70
2018-10-04T02:04:33.637Z,5.70
2018-10-04T02:07:01.967Z,5.60
2018-10-04T02:09:30.215Z,5.60
2018-10-04T02:11:58.461Z,5.60
2018-10-04T02:14:26.701Z,5.60
2018-10-04T02:16:54.937Z,5.60
2018-10-04T02:19:23.199Z,5.60
2018-10-04T02:21:51.451Z,5.60
2018-10-04T02:24:20.915Z,5.60
2018-10-04T02:26:49.156Z,5.60
2018-10-04T02:29:17.421Z,5.60
2018-10-04T02:31:45.678Z,5.60
2018-10-04T02:34:13.960Z,5.60
2018-10-04T02:36:42.193Z,5.60
2018-10-04T02:39:10.485Z,5.60
2018-10-04T02:41:39.507Z,5.60
2018-10-04T02:44:07.797Z,5.60
2018-10-04T02:46:36.186Z,5.70
2018-10-04T02:49:04.632Z,5.70
2018-10-04T02:51:33.959Z,5.70
2018-10-04T02:54:02.575Z,5.70
2018-10-04T02:56:36.266Z,5.70
2018-10-04T02:59:04.585Z,5.80
2018-10-04T03:01:32.926Z,5.80
2018-10-04T03:04:01.186Z,5.90
2018-10-04T03:06:29.415Z,5.90
2018-10-04T03:08:57.987Z,5.90
2018-10-04T03:11:26.268Z,5.90
2018-10-04T03:13:54.603Z,5.90
2018-10-04T03:16:22.861Z,5.90
2018-10-04T03:18:52.234Z,5.90
2018-10-04T03:21:20.513Z,6.00
2018-10-04T03:23:48.716Z,6.00
2018-10-04T03:26:18.103Z,6.10
2018-10-04T03:28:46.307Z,6.10
2018-10-04T03:31:14.545Z,6.10
2018-10-04T03:33:42.785Z,6.20
2018-10-04T03:36:11.076Z,6.20
2018-10-04T03:38:39.290Z,6.20
2018-10-04T03:41:07.536Z,6.20
2018-10-04T03:43:35.834Z,6.20
2018-10-04T03:46:05.069Z,6.20
2018-10-04T03:48:33.285Z,6.20
2018-10-04T03:51:02.961Z,6.30
2018-10-04T03:53:31.773Z,6.30
2018-10-04T03:56:00.126Z,6.30
2018-10-04T03:58:28.328Z,6.30
2018-10-04T04:00:56.779Z,6.30
2018-10-04T04:03:25.033Z,6.30
2018-10-04T04:05:53.315Z,6.30
2018-10-04T04:08:24.785Z,6.30
2018-10-04T04:10:53.259Z,6.30
2018-10-04T04:13:21.453Z,6.30
2018-10-04T04:15:49.793Z,6.30
2018-10-04T04:18:18.025Z,6.30
2018-10-04T04:20:46.267Z,6.30
2018-10-04T04:23:14.534Z,6.40
2018-10-04T04:25:53.559Z,6.30
2018-10-04T04:28:21.992Z,6.40
2018-10-04T04:30:50.418Z,6.40
2018-10-04T04:33:18.558Z,6.40
2018-10-04T04:35:46.833Z,6.40
2018-10-04T04:38:15.145Z,6.50
2018-10-04T04:40:43.395Z,6.50
2018-10-04T04:43:11.730Z,6.60
2018-10-04T04:45:40.320Z,6.60
2018-10-04T04:48:08.609Z,6.60
2018-10-04T04:50:37.889Z,6.70
2018-10-04T04:53:17.445Z,6.70
2018-10-04T04:55:45.752Z,6.70
2018-10-04T04:58:15.365Z,6.70
2018-10-04T05:00:44.764Z,6.70
2018-10-04T05:03:13.242Z,6.70
2018-10-04T05:05:41.453Z,6.80
2018-10-04T05:08:10.417Z,6.80
2018-10-04T05:10:42.588Z,6.80
2018-10-04T05:13:11.390Z,6.80
2018-10-04T05:15:39.647Z,6.80
2018-10-04T05:18:07.900Z,6.80
2018-10-04T05:20:36.171Z,6.80
2018-10-04T05:23:07.515Z,6.80
2018-10-04T05:25:35.816Z,6.80
2018-10-04T05:28:04.101Z,6.90
2018-10-04T05:30:35.763Z,6.90
2018-10-04T05:33:06.804Z,7.00
2018-10-04T05:35:38.300Z,7.00
2018-10-04T05:39:00.540Z,7.00
2018-10-04T05:41:30.589Z,7.00
2018-10-04T05:44:04.275Z,7.10
2018-10-04T05:46:34.401Z,7.20
2018-10-04T05:49:06.198Z,7.20
2018-10-04T05:51:41.657Z,7.20
2018-10-04T05:54:13.290Z,7.30
2018-10-04T05:56:42.463Z,7.30
2018-10-04T05:59:11.256Z,7.40
2018-10-04T06:01:45.873Z,7.40
2018-10-04T06:04:17.908Z,7.40
2018-10-04T06:06:48.401Z,7.50
2018-10-04T06:09:17.350Z,7.50
2018-10-04T06:11:45.834Z,7.50
2018-10-04T06:14:14.126Z,7.50
2018-10-04T06:16:43.850Z,7.60
2018-10-04T06:19:19.129Z,7.60
2018-10-04T06:21:48.966Z,7.60
2018-10-04T06:24:22.799Z,7.60
2018-10-04T06:26:51.326Z,7.70
2018-10-04T06:29:20.710Z,7.70
2018-10-04T06:31:49.499Z,7.70
2018-10-04T06:34:18.090Z,7.70
2018-10-04T06:36:48.717Z,7.70
2018-10-04T06:39:18.106Z,7.70
2018-10-04T06:41:47.553Z,7.70
2018-10-04T06:44:16.100Z,7.70
2018-10-04T06:46:45.426Z,7.80
2018-10-04T06:49:14.172Z,7.80
2018-10-04T06:51:42.707Z,7.80
2018-10-04T06:54:11.091Z,7.90
2018-10-04T06:56:39.525Z,7.90
2018-10-04T06:59:08.120Z,7.90
2018-10-04T07:01:37.707Z,7.90
2018-10-04T07:04:06.909Z,8.00
2018-10-04T07:06:37.453Z,8.00
2018-10-04T07:09:09.504Z,8.00
2018-10-04T07:11:39.410Z,8.10
2018-10-04T07:14:08.971Z,8.10
2018-10-04T07:16:37.608Z,8.20
2018-10-04T07:19:06.145Z,8.20
2018-10-04T07:21:35.766Z,8.20
2018-10-04T07:24:04.290Z,8.20
2018-10-04T07:26:33.258Z,8.30
2018-10-04T07:29:01.667Z,8.30
2018-10-04T07:31:30.906Z,8.40
2018-10-04T07:33:59.690Z,8.40
2018-10-04T07:36:29.386Z,8.50
2018-10-04T07:38:57.995Z,8.50
2018-10-04T07:41:32.662Z,8.50
2018-10-04T07:44:02.921Z,8.60
2018-10-04T07:46:31.619Z,8.60
2018-10-04T07:48:59.925Z,8.60
2018-10-04T07:51:28.449Z,8.70
2018-10-04T07:53:56.986Z,8.70
2018-10-04T07:56:25.556Z,8.80
2018-10-04T07:58:53.991Z,8.80
2018-10-04T08:01:31.169Z,8.90
2018-10-04T08:03:59.531Z,8.90
2018-10-04T08:06:28.451Z,8.90
2018-10-04T08:08:56.970Z,9.00
2018-10-04T08:11:25.349Z,9.00
2018-10-04T08:17:11.212Z,9.10
2018-10-04T08:19:54.562Z,9.10
2018-10-04T08:22:23.825Z,9.20
2018-10-04T08:24:57.683Z,9.20
2018-10-04T08:27:33.544Z,9.30
2018-10-04T08:30:04.027Z,9.30
2018-10-04T08:32:33.075Z,9.40
2018-10-04T08:35:02.277Z,9.40
2018-10-04T08:37:31.058Z,9.40
2018-10-04T08:40:00.403Z,9.50
2018-10-04T08:42:28.778Z,9.50
2018-10-04T08:44:57.883Z,9.60
2018-10-04T08:47:34.851Z,9.60
2018-10-04T08:50:11.681Z,9.70
2018-10-04T08:52:48.476Z,9.70
2018-10-04T08:55:30.490Z,9.70
2018-10-04T08:58:19.413Z,9.80
2018-10-04T09:01:09.330Z,9.80
2018-10-04T09:03:41.595Z,9.90
2018-10-04T09:06:11.431Z,10.00
2018-10-04T09:08:41.463Z,10.00
2018-10-04T09:11:10.023Z,10.10
2018-10-04T09:13:39.007Z,10.20
2018-10-04T09:16:09.718Z,10.30
2018-10-04T09:18:38.696Z,10.30
2018-10-04T09:21:09.206Z,10.40
2018-10-04T09:23:38.490Z,10.50
2018-10-04T09:26:07.057Z,10.50
2018-10-04T09:28:36.515Z,10.60
2018-10-04T09:31:10.326Z,10.70
2018-10-04T09:33:40.444Z,10.80
2018-10-04T09:36:10.329Z,10.80
2018-10-04T09:38:39.251Z,10.90
2018-10-04T09:41:07.604Z,11.00
2018-10-04T09:43:36.037Z,11.10
2018-10-04T09:46:05.881Z,11.20
2018-10-04T09:48:35.342Z,11.30
2018-10-04T09:51:09.388Z,11.40
2018-10-04T09:53:43.309Z,11.40
2018-10-04T09:56:17.192Z,11.50
2018-10-04T09:58:45.549Z,11.60
2018-10-04T10:01:20.308Z,11.70
2018-10-04T10:03:50.209Z,11.80
2018-10-04T10:06:22.247Z,11.90
2018-10-04T10:08:50.939Z,12.00
2018-10-04T10:11:20.676Z,12.00
2018-10-04T10:13:49.829Z,12.10
2018-10-04T10:16:20.206Z,12.20
2018-10-04T10:21:33.966Z,12.40
2018-10-04T10:24:05.223Z,12.50
2018-10-04T10:26:40.671Z,12.50
2018-10-04T10:29:09.581Z,12.60
2018-10-04T10:31:45.861Z,12.70
2018-10-04T10:34:23.987Z,12.80
2018-10-04T10:37:03.607Z,12.90
2018-10-04T10:39:32.324Z,13.00
2018-10-04T10:42:00.658Z,13.00
2018-10-04T10:44:40.937Z,13.10
2018-10-04T10:47:21.936Z,13.20
2018-10-04T10:53:23.380Z,13.30
2018-10-04T10:55:51.677Z,13.40
2018-10-04T10:58:19.960Z,13.50
2018-10-04T11:00:53.542Z,13.50
2018-10-04T11:03:22.151Z,13.60
2018-10-04T11:05:50.391Z,13.70
2018-10-04T11:08:19.189Z,13.70
2018-10-04T11:10:55.660Z,13.80
2018-10-04T11:13:31.676Z,13.80
2018-10-04T11:16:27.485Z,13.90
2018-10-04T11:18:57.791Z,14.00
2018-10-04T11:21:27.669Z,14.10
2018-10-04T11:23:58.518Z,14.20
2018-10-04T11:26:28.701Z,14.20
2018-10-04T11:28:58.993Z,14.30
2018-10-04T11:31:29.714Z,14.30
2018-10-04T11:34:00.748Z,14.40
2018-10-04T11:36:32.842Z,14.40
2018-10-04T11:39:06.904Z,14.40
2018-10-04T11:41:40.891Z,14.50
2018-10-04T11:44:21.302Z,14.50
2018-10-04T11:46:59.214Z,14.60
2018-10-04T11:49:35.760Z,14.60
2018-10-04T11:55:20.184Z,14.70
2018-10-04T11:57:52.070Z,14.80
2018-10-04T12:00:27.362Z,14.80
2018-10-04T12:03:33.185Z,14.80
2018-10-04T12:07:11.328Z,14.90
2018-10-04T12:10:28.951Z,15.00
2018-10-04T12:37:11.255Z,15.10
2018-10-04T12:39:43.091Z,15.60
2018-10-04T12:42:15.748Z,15.60
2018-10-04T12:44:45.215Z,15.60
2018-10-04T12:47:27.358Z,15.70
2018-10-04T12:49:56.745Z,15.70
2018-10-04T12:52:38.597Z,15.80
2018-10-04T12:55:11.275Z,15.80
2018-10-04T12:57:42.823Z,15.90
2018-10-04T13:00:23.089Z,15.90
2018-10-04T13:03:06.661Z,16.00
2018-10-04T13:05:41.682Z,16.00
2018-10-04T13:08:16.784Z,16.10
2018-10-04T13:10:59.257Z,16.20
2018-10-04T14:04:13.209Z,16.80
2018-10-04T14:18:19.687Z,16.80
2018-10-04T14:20:48.886Z,16.80
2018-10-04T14:23:26.998Z,16.70
2018-10-04T14:25:56.109Z,16.70
2018-10-04T14:28:24.530Z,16.60
2018-10-04T14:39:36.290Z,16.50
2018-10-04T14:42:05.010Z,16.50
2018-10-04T14:44:33.465Z,16.40
2018-10-04T14:47:02.976Z,16.40
2018-10-04T14:49:33.474Z,16.30
2018-10-04T14:52:03.289Z,16.20
2018-10-04T14:54:32.500Z,16.10
2018-10-04T15:02:51.454Z,16.00
2018-10-04T15:05:49.562Z,15.80
2018-10-04T15:08:24.055Z,15.80
2018-10-04T15:11:06.851Z,15.70
2018-10-04T15:14:08.710Z,15.70
2018-10-04T15:16:44.925Z,15.60
2018-10-04T15:22:21.850Z,15.50
2018-10-04T15:25:00.819Z,15.40
2018-10-04T15:27:53.322Z,15.30
2018-10-04T15:30:44.858Z,15.30
2018-10-04T15:33:32.640Z,15.20
2018-10-04T15:36:02.985Z,15.20
2018-10-04T15:38:36.259Z,15.20
2018-10-04T15:41:17.143Z,15.10
2018-10-04T15:50:38.418Z,15.00
2018-10-04T15:53:16.717Z,14.90
2018-10-04T15:56:01.590Z,14.90
2018-10-04T15:58:32.375Z,14.90
2018-10-04T16:01:02.769Z,14.90
2018-10-04T16:03:32.491Z,14.80
2018-10-04T16:06:02.566Z,14.80
2018-10-04T16:08:30.962Z,14.70
2018-10-04T16:10:59.587Z,14.70
2018-10-04T16:13:28.988Z,14.60
2018-10-04T16:16:03.483Z,14.60
2018-10-04T16:18:31.982Z,14.50
2018-10-04T16:21:17.869Z,14.50
2018-10-04T16:23:46.256Z,14.50
2018-10-04T16:26:19.019Z,14.50
2018-10-04T16:28:56.989Z,14.40
2018-10-04T16:31:29.233Z,14.30
2018-10-04T16:34:11.876Z,14.30
2018-10-04T16:36:55.194Z,14.30
2018-10-04T16:39:41.675Z,14.30
2018-10-04T16:42:32.094Z,14.20
2018-10-04T16:45:06.782Z,14.20
2018-10-04T16:47:40.978Z,14.10
2018-10-04T16:50:11.964Z,14.00
2018-10-04T16:53:00.211Z,14.00
2018-10-04T16:58:39.365Z,13.90
2018-10-04T17:04:20.900Z,13.70
2018-10-04T17:07:01.717Z,13.60
2018-10-04T17:13:12.119Z,13.50
2018-10-04T17:15:46.365Z,13.40
2018-10-04T17:18:18.396Z,13.30
2018-10-04T17:20:47.951Z,13.30
2018-10-04T17:23:16.415Z,13.20
2018-10-04T17:25:44.726Z,13.20
2018-10-04T17:28:13.152Z,13.10
2018-10-04T17:30:48.230Z,13.00
2018-10-04T17:33:16.617Z,12.90
2018-10-04T17:35:45.059Z,12.80
2018-10-04T17:38:13.424Z,12.80
2018-10-04T17:40:42.370Z,12.70
2018-10-04T17:43:11.817Z,12.70
2018-10-04T17:45:40.074Z,12.60
2018-10-04T17:48:08.281Z,12.50
2018-10-04T17:50:56.566Z,12.50
2018-10-04T17:53:24.885Z,12.40
2018-10-04T17:55:53.238Z,12.30
2018-10-04T17:58:21.561Z,12.30
2018-10-04T18:00:49.949Z,12.30
2018-10-04T18:03:24.325Z,12.20
2018-10-04T18:05:54.654Z,12.20
2018-10-04T18:08:22.904Z,12.10
2018-10-04T18:10:51.389Z,12.10
2018-10-04T18:13:20.730Z,12.10
2018-10-04T18:15:49.029Z,12.00
2018-10-04T18:18:17.401Z,12.00
2018-10-04T18:20:46.773Z,11.90
2018-10-04T18:23:17.482Z,11.90
2018-10-04T18:25:45.786Z,11.80
2018-10-04T18:28:14.055Z,11.80
2018-10-04T18:30:43.772Z,11.70
2018-10-04T18:33:13.074Z,11.70
2018-10-04T18:35:41.379Z,11.60
2018-10-04T18:38:09.706Z,11.60
2018-10-04T18:40:37.985Z,11.50
2018-10-04T18:43:06.330Z,11.50
2018-10-04T18:45:35.485Z,11.40
2018-10-04T18:48:03.746Z,11.40
2018-10-04T18:50:32.007Z,11.30
2018-10-04T18:53:00.324Z,11.30
2018-10-04T18:55:28.622Z,11.20
2018-10-04T18:57:58.938Z,11.20
2018-10-04T19:00:27.256Z,11.10
2018-10-04T19:02:55.568Z,11.10
2018-10-04T19:05:23.908Z,11.00
2018-10-04T19:07:52.189Z,11.00
2018-10-04T19:10:21.781Z,10.90
2018-10-04T19:12:50.112Z,10.90
2018-10-04T19:15:18.335Z,10.80
2018-10-04T19:17:46.735Z,10.80
2018-10-04T19:20:20.187Z,10.80
2018-10-04T19:22:48.444Z,10.70
2018-10-04T19:25:18.052Z,10.70
2018-10-04T19:27:46.301Z,10.70
2018-10-04T19:30:14.636Z,10.60
2018-10-04T19:32:42.986Z,10.60
2018-10-04T19:35:11.253Z,10.60
2018-10-04T19:37:39.548Z,10.50
2018-10-04T19:40:08.889Z,10.50
2018-10-04T19:42:37.202Z,10.40
2018-10-04T19:45:05.617Z,10.40
2018-10-04T19:47:33.969Z,10.40
2018-10-04T19:50:02.227Z,10.40
2018-10-04T19:52:31.981Z,10.30
2018-10-04T19:55:00.246Z,10.30
2018-10-04T19:57:28.559Z,10.30
2018-10-04T19:59:56.869Z,10.20
2018-10-04T20:02:25.234Z,10.20
2018-10-04T20:04:53.513Z,10.20
2018-10-04T20:07:21.801Z,10.20
2018-10-04T20:09:50.192Z,10.10
2018-10-04T20:12:18.630Z,10.10
2018-10-04T20:14:46.870Z,10.00
2018-10-04T20:17:15.814Z,10.00
2018-10-04T20:19:44.085Z,10.00
2018-10-04T20:22:14.791Z,9.90
2018-10-04T20:24:43.177Z,9.90
2018-10-04T20:27:11.706Z,9.90
2018-10-04T20:29:40.326Z,9.90
2018-10-04T20:32:09.497Z,9.80
2018-10-04T20:34:37.922Z,9.80
2018-10-04T20:37:08.230Z,9.80
2018-10-04T20:39:41.305Z,9.70
2018-10-04T20:42:09.661Z,9.70
2018-10-04T20:44:37.927Z,9.70
2018-10-04T20:47:06.215Z,9.70
2018-10-04T20:49:34.686Z,9.70
2018-10-04T20:52:02.987Z,9.60
2018-10-04T20:54:31.280Z,9.60
2018-10-04T20:56:59.549Z,9.60
2018-10-04T20:59:27.901Z,9.50
2018-10-04T21:01:56.159Z,9.50
2018-10-04T21:04:24.507Z,9.50
2018-10-04T21:06:52.757Z,9.50
2018-10-04T21:09:21.247Z,9.40
2018-10-04T21:11:49.997Z,9.40
2018-10-04T21:14:18.321Z,9.40
2018-10-04T21:16:46.557Z,9.40
2018-10-04T21:19:14.825Z,9.40
2018-10-04T21:21:43.172Z,9.30
2018-10-04T21:24:11.418Z,9.30
2018-10-04T21:26:39.744Z,9.30
2018-10-04T21:29:07.986Z,9.30
2018-10-04T21:31:36.249Z,9.30
2018-10-04T21:34:04.501Z,9.20
2018-10-04T21:36:32.829Z,9.20
2018-10-04T21:39:01.074Z,9.20
2018-10-04T21:41:29.358Z,9.20
2018-10-04T21:43:57.598Z,9.10
2018-10-04T21:46:25.954Z,9.10
2018-10-04T21:48:54.206Z,9.10
2018-10-04T21:51:22.465Z,9.00
2018-10-04T21:53:50.964Z,9.00
2018-10-04T21:56:19.213Z,9.00
2018-10-04T21:58:47.486Z,9.00
2018-10-04T22:01:19.831Z,8.90
2018-10-04T22:03:48.296Z,8.90
2018-10-04T22:06:16.645Z,8.90
2018-10-04T22:08:44.982Z,8.90
2018-10-04T22:11:13.340Z,8.80
2018-10-04T22:13:41.598Z,8.80
2018-10-04T22:16:09.842Z,8.70
2018-10-04T22:18:38.185Z,8.70
2018-10-04T22:21:06.685Z,8.70
2018-10-04T22:23:35.937Z,8.70
2018-10-04T22:26:04.162Z,8.70
2018-10-04T22:28:32.425Z,8.70
2018-10-04T22:31:00.713Z,8.60
2018-10-04T22:33:28.934Z,8.60
2018-10-04T22:35:57.214Z,8.60
2018-10-04T22:38:25.663Z,8.60
2018-10-04T22:40:54.077Z,8.60
2018-10-04T22:43:22.353Z,8.60
2018-10-04T22:45:50.648Z,8.50
2018-10-04T22:48:18.946Z,8.50
2018-10-04T22:50:49.732Z,8.50
2018-10-04T22:53:18.128Z,8.50
2018-10-04T22:55:46.415Z,8.50
2018-10-04T22:58:14.737Z,8.40
2018-10-04T23:00:42.917Z,8.40
2018-10-04T23:03:11.261Z,8.30
2018-10-04T23:05:39.468Z,8.30
2018-10-04T23:08:07.763Z,8.30
2018-10-04T23:10:37.185Z,8.30
2018-10-04T23:13:05.403Z,8.20
2018-10-04T23:15:33.636Z,8.20
2018-10-04T23:18:01.863Z,8.20
2018-10-04T23:20:30.161Z,8.20
2018-10-04T23:22:58.398Z,8.20
2018-10-04T23:25:26.759Z,8.20
2018-10-04T23:27:54.969Z,8.20
2018-10-04T23:30:23.198Z,8.20
2018-10-04T23:32:51.473Z,8.20
2018-10-04T23:35:24.596Z,8.20
2018-10-04T23:37:52.892Z,8.20
2018-10-04T23:40:21.137Z,8.20
2018-10-04T23:42:49.409Z,8.10
2018-10-04T23:45:21.876Z,8.10
2018-10-04T23:47:50.348Z,8.10
2018-10-04T23:50:18.663Z,8.10
2018-10-04T23:52:46.898Z,8.20
2018-10-04T23:55:15.214Z,8.20
2018-10-04T23:57:43.504Z,8.20
